Time;durP1;ratioP1;P1;durP2;ratioP2;P2;SDS_P1;SDS_P2;PMS_P1;PMS_P2;Temp;Humidity;BMP_temperature;BMP_pressure;BME280_temperature;BME280_humidity;BME280_pressure;Samples;Min_cycle;Max_cycle;Signal;HPM_P1;HPM_P2
2022/03/13 00:00:59;;;;;;;19.63;9.53;;;-1.20;57.60;;;-1.65;47.11;96010.06;4982031;28;20852;-60
2022/03/13 00:03:28;;;;;;;19.50;8.93;;;-1.20;57.80;;;-1.66;47.70;96000.63;4969608;28;20558;-63
2022/03/13 00:05:55;;;;;;;19.43;9.63;;;-1.20;57.80;;;-1.67;47.64;96009.28;4975981;28;20539;-58
2022/03/13 00:08:26;;;;;;;23.27;9.27;;;-1.20;58.10;;;-1.70;48.07;96007.59;4979057;28;20514;-58
2022/03/13 00:10:56;;;;;;;22.90;9.30;;;-1.30;58.10;;;-1.74;47.36;96002.56;4981823;28;20979;-58
2022/03/13 00:13:31;;;;;;;22.57;9.00;;;-1.30;58.10;;;-1.79;47.08;96002.69;4970361;28;20476;-55
2022/03/13 00:16:01;;;;;;;20.10;9.43;;;-1.30;57.90;;;-1.83;48.01;95996.75;4974202;28;20453;-56
2022/03/13 00:18:32;;;;;;;20.03;10.73;;;-1.30;58.70;;;-1.88;48.31;96003.72;4976548;28;20578;-59
2022/03/13 00:21:03;;;;;;;25.73;14.40;;;-1.40;58.70;;;-1.90;47.80;96010.66;4977467;28;20468;-59
2022/03/13 00:23:30;;;;;;;45.30;19.77;;;-1.40;59.00;;;-1.92;47.99;95993.53;4976408;28;20467;-60
2022/03/13 00:25:57;;;;;;;55.37;22.40;;;-1.40;59.00;;;-1.92;47.39;95996.09;4972098;28;20463;-57
2022/03/13 00:28:25;;;;;;;58.97;21.73;;;-1.50;58.80;;;-1.92;47.76;96001.25;4973358;28;20476;-57
2022/03/13 00:30:52;;;;;;;51.03;21.10;;;-1.50;59.30;;;-1.92;48.38;95996.09;4982519;28;20463;-54
2022/03/13 00:33:20;;;;;;;47.03;18.50;;;-1.50;59.80;;;-1.93;48.03;95999.59;4979461;28;20787;-58
2022/03/13 00:35:49;;;;;;;45.50;18.80;;;-1.50;60.70;;;-1.95;49.12;96002.19;4972256;28;20459;-54
2022/03/13 00:38:16;;;;;;;36.93;15.10;;;-1.50;60.00;;;-1.97;49.02;95993.63;4977966;28;20470;-57
2022/03/13 00:40:48;;;;;;;39.53;14.83;;;-1.50;60.30;;;-2.00;48.42;95996.28;4978271;28;20451;-58
2022/03/13 00:43:15;;;;;;;26.87;12.90;;;-1.50;60.10;;;-2.03;48.31;95993.78;4984314;28;20538;-54
2022/03/13 00:45:42;;;;;;;31.20;13.70;;;-1.50;59.90;;;-2.06;48.72;95993.84;4970254;28;20509;-58
2022/03/13 00:48:10;;;;;;;27.43;12.50;;;-1.60;59.60;;;-2.10;48.45;95997.41;4975716;28;20479;-57
2022/03/13 00:50:37;;;;;;;27.83;12.87;;;-1.60;59.40;;;-2.14;48.48;95988.03;4972390;28;20470;-56
2022/03/13 00:53:06;;;;;;;21.27;12.17;;;-1.70;59.50;;;-2.20;48.22;95987.31;4979863;28;20499;-55
2022/03/13 00:55:33;;;;;;;27.20;11.70;;;-1.70;59.10;;;-2.24;47.88;95979.69;4965519;28;20897;-59
2022/03/13 00:58:01;;;;;;;22.50;11.90;;;-1.70;59.10;;;-2.28;47.57;95978.03;4974915;28;20482;-59
2022/03/13 01:00:28;;;;;;;25.33;10.43;;;-1.80;59.00;;;-2.30;47.49;95980.66;4979635;28;20684;-59
2022/03/13 01:02:56;;;;;;;27.07;10.60;;;-1.80;59.10;;;-2.31;48.79;95972.97;4979112;28;20557;-56
2022/03/13 01:05:24;;;;;;;23.63;11.23;;;-1.80;59.10;;;-2.32;47.68;95976.41;4970246;28;20898;-57
2022/03/13 01:07:52;;;;;;;20.73;11.23;;;-1.80;59.10;;;-2.33;47.55;95970.41;4974931;28;20479;-60
2022/03/13 01:10:20;;;;;;;23.57;11.70;;;-1.80;59.10;;;-2.35;48.05;95965.31;4978125;28;20455;-59
2022/03/13 01:12:48;;;;;;;23.57;11.43;;;-1.90;58.90;;;-2.35;48.32;95967.03;4981126;28;20573;-57
2022/03/13 01:15:15;;;;;;;21.17;10.57;;;-1.90;59.00;;;-2.36;48.25;95965.34;4977515;28;20982;-56
2022/03/13 01:17:43;;;;;;;25.07;11.10;;;-1.90;58.90;;;-2.39;47.49;95963.66;4973836;28;20510;-58
2022/03/13 01:20:19;;;;;;;25.40;11.37;;;-1.90;58.60;;;-2.40;47.48;95953.41;4970126;28;20490;-59
2022/03/13 01:22:46;;;;;;;20.70;11.80;;;-1.90;58.60;;;-2.43;47.56;95951.75;4976593;28;20482;-56
2022/03/13 01:25:13;;;;;;;21.73;11.90;;;-1.90;58.70;;;-2.43;47.85;95958.63;4984239;28;21029;-59
2022/03/13 01:27:42;;;;;;;23.90;11.67;;;-1.90;58.80;;;-2.44;48.14;95949.22;4971051;28;20476;-58
2022/03/13 01:30:13;;;;;;;19.70;10.80;;;-1.90;58.70;;;-2.47;48.27;95944.97;4973594;28;20972;-57
2022/03/13 01:32:41;;;;;;;28.10;12.50;;;-2.00;58.60;;;-2.48;47.83;95947.59;4974378;28;20497;-56
2022/03/13 01:35:09;;;;;;;26.13;10.30;;;-1.90;58.80;;;-2.49;48.12;95943.31;4979500;28;20952;-55
2022/03/13 01:37:38;;;;;;;25.90;11.00;;;-2.00;58.90;;;-2.53;47.78;95935.63;4967257;28;20499;-57
2022/03/13 01:40:08;;;;;;;22.20;11.40;;;-2.00;58.90;;;-2.55;47.35;95937.41;4977933;28;20459;-58
2022/03/13 01:42:35;;;;;;;20.97;10.87;;;-2.00;58.90;;;-2.56;48.56;95927.97;4977326;28;21083;-54
2022/03/13 01:45:05;;;;;;;20.37;10.80;;;-2.10;58.80;;;-2.60;48.39;95933.25;4983473;28;20478;-59
2022/03/13 01:47:32;;;;;;;16.90;10.07;;;-2.10;58.90;;;-2.65;48.48;95927.34;4974449;28;20471;-56
2022/03/13 01:50:00;;;;;;;18.23;9.90;;;-2.10;59.10;;;-2.70;47.13;95935.19;4975695;28;20459;-55
2022/03/13 01:52:28;;;;;;;15.03;8.70;;;-2.20;58.70;;;-2.74;48.23;95934.41;4971966;28;20849;-55
2022/03/13 01:54:56;;;;;;;17.20;11.00;;;-2.20;58.70;;;-2.77;48.17;95938.78;4977374;28;20479;-56
2022/03/13 01:57:23;;;;;;;21.30;10.40;;;-2.30;58.60;;;-2.80;47.88;95938.84;4977124;28;21022;-60
2022/03/13 01:59:52;;;;;;;13.97;9.00;;;-2.30;58.80;;;-2.83;48.26;95941.50;4972460;28;20459;-57
2022/03/13 02:02:22;;;;;;;14.47;8.50;;;-2.30;58.80;;;-2.86;48.36;95947.53;4978648;28;20562;-55
2022/03/13 02:04:54;;;;;;;17.30;9.90;;;-2.30;59.20;;;-2.88;48.58;95947.56;4982625;28;20455;-57
2022/03/13 02:07:22;;;;;;;23.07;10.53;;;-2.30;59.30;;;-2.89;47.65;95951.00;4977487;28;21015;-58
2022/03/13 02:09:49;;;;;;;18.53;9.73;;;-2.40;59.30;;;-2.89;47.97;95943.28;4972351;28;20561;-58
2022/03/13 02:12:19;;;;;;;20.80;9.70;;;-2.40;59.40;;;-2.87;48.92;95940.69;4976810;28;20490;-58
2022/03/13 02:14:46;;;;;;;22.13;9.63;;;-2.40;59.70;;;-2.87;48.49;95945.84;4980293;28;21069;-58
2022/03/13 02:17:14;;;;;;;21.27;11.43;;;-2.30;60.20;;;-2.87;48.95;95945.84;4982571;28;20840;-57
2022/03/13 02:19:42;;;;;;;24.80;11.57;;;-2.40;60.30;;;-2.89;48.68;95956.16;4970000;28;20506;-58
2022/03/13 02:22:10;;;;;;;21.37;10.13;;;-2.40;60.40;;;-2.91;49.22;95952.78;4973999;28;20486;-55
2022/03/13 02:24:38;;;;;;;23.00;8.87;;;-2.40;60.40;;;-2.93;48.72;95953.69;4979266;28;20533;-57
2022/03/13 02:27:07;;;;;;;17.37;10.17;;;-2.40;60.30;;;-2.96;48.54;95953.75;4978920;28;20964;-53
2022/03/13 02:29:34;;;;;;;20.13;9.93;;;-2.40;60.70;;;-2.99;48.63;95944.38;4972927;28;20496;-58
2022/03/13 02:32:02;;;;;;;19.50;9.60;;;-2.40;61.00;;;-3.00;48.55;95952.13;4975519;28;20904;-55
2022/03/13 02:34:29;;;;;;;19.77;11.03;;;-2.50;61.90;;;-3.00;49.71;95958.13;4977304;28;20448;-57
2022/03/13 02:37:02;;;;;;;15.30;9.10;;;-2.50;61.70;;;-3.01;48.91;95956.41;4979152;28;20453;-56
2022/03/13 02:39:34;;;;;;;15.50;9.33;;;-2.50;61.30;;;-3.01;50.04;95956.41;4969834;28;20472;-57
2022/03/13 02:42:05;;;;;;;19.20;9.30;;;-2.50;61.70;;;-3.01;48.73;95956.41;4972635;28;20454;-59
2022/03/13 02:44:32;;;;;;;20.53;9.70;;;-2.50;61.80;;;-3.01;49.74;95951.25;4977975;28;20499;-56
2022/03/13 02:47:02;;;;;;;18.57;10.30;;;-2.50;61.80;;;-3.00;49.92;95960.69;4981524;28;20864;-58
2022/03/13 02:49:30;;;;;;;18.50;9.70;;;-2.50;61.80;;;-3.01;49.00;95960.72;4976776;28;20459;-56
2022/03/13 02:52:01;;;;;;;16.37;10.47;;;-2.50;61.70;;;-3.02;49.56;95965.03;4969814;28;20481;-58
2022/03/13 02:54:28;;;;;;;18.93;9.80;;;-2.50;61.80;;;-3.03;49.17;95953.03;4976247;28;20452;-55
2022/03/13 02:56:56;;;;;;;18.77;10.17;;;-2.50;61.80;;;-3.04;48.76;95964.19;4968996;28;20458;-55
2022/03/13 02:59:24;;;;;;;19.80;10.47;;;-2.50;62.00;;;-3.04;48.86;95956.47;4978270;28;20521;-58
2022/03/13 03:01:52;;;;;;;15.73;9.17;;;-2.50;62.00;;;-3.04;49.67;95955.63;4967977;28;20458;-58
2022/03/13 03:04:20;;;;;;;17.00;9.93;;;-2.50;62.70;;;-3.07;49.74;95953.97;4972703;28;20479;-58
2022/03/13 03:06:59;;;;;;;20.30;10.40;;;-2.50;63.20;;;-3.10;49.73;95952.31;4979694;28;20451;-56
2022/03/13 03:09:26;;;;;;;18.47;9.80;;;-2.60;62.50;;;-3.10;49.11;95946.31;4978037;28;20883;-56
2022/03/13 03:11:54;;;;;;;20.83;9.67;;;-2.60;62.50;;;-3.08;49.32;95944.56;4970330;28;20847;-57
2022/03/13 03:14:21;;;;;;;18.30;10.20;;;-2.60;62.70;;;-3.07;50.42;95948.81;4978149;28;21023;-57
2022/03/13 03:16:50;;;;;;;26.27;10.70;;;-2.60;62.70;;;-3.06;49.77;95950.53;4978535;28;20464;-58
2022/03/13 03:19:17;;;;;;;16.50;10.30;;;-2.50;62.70;;;-3.06;49.67;95948.78;4982973;28;20466;-59
2022/03/13 03:21:44;;;;;;;21.93;10.47;;;-2.50;62.70;;;-3.07;49.39;95944.53;4978616;28;20840;-58
2022/03/13 03:24:13;;;;;;;34.00;12.67;;;-2.50;62.90;;;-3.05;50.41;95947.09;4974194;28;20490;-58
2022/03/13 03:26:41;;;;;;;20.10;11.53;;;-2.50;62.90;;;-3.05;49.20;95939.38;4977535;28;20452;-57
2022/03/13 03:29:08;;;;;;;29.23;14.40;;;-2.50;62.80;;;-3.05;49.73;95944.50;4982435;28;20478;-56
2022/03/13 03:31:43;;;;;;;27.57;14.70;;;-2.50;62.90;;;-3.07;50.05;95946.25;4979866;28;20467;-58
2022/03/13 03:34:13;;;;;;;28.40;12.40;;;-2.50;62.80;;;-3.07;48.91;95938.53;4973182;28;20491;-54
2022/03/13 03:36:42;;;;;;;28.50;11.60;;;-2.50;62.70;;;-3.07;49.91;95941.09;4980034;28;20461;-56
2022/03/13 03:39:10;;;;;;;20.17;10.97;;;-2.50;62.70;;;-3.08;50.21;95935.13;4977528;28;20497;-57
2022/03/13 03:41:37;;;;;;;21.20;12.10;;;-2.50;62.70;;;-3.11;48.99;95937.75;4980876;28;20458;-57
2022/03/13 03:44:05;;;;;;;22.87;10.87;;;-2.60;62.60;;;-3.14;49.47;95934.41;4976517;28;20482;-58
2022/03/13 03:46:33;;;;;;;22.40;11.67;;;-2.60;62.90;;;-3.19;49.88;95938.78;4978890;28;20459;-56
2022/03/13 03:49:01;;;;;;;26.27;10.97;;;-2.60;63.00;;;-3.25;50.19;95937.19;4978131;28;20478;-58
2022/03/13 03:51:29;;;;;;;23.87;12.17;;;-2.70;62.90;;;-3.30;49.62;95936.41;4984929;28;20462;-58
2022/03/13 03:53:57;;;;;;;24.30;11.47;;;-2.80;63.10;;;-3.34;50.10;95939.94;4974911;28;20491;-59
2022/03/13 03:56:24;;;;;;;27.30;11.63;;;-2.80;63.30;;;-3.36;50.18;95939.97;4977511;28;20454;-56
2022/03/13 03:58:51;;;;;;;24.23;13.50;;;-2.80;63.70;;;-3.38;50.47;95941.69;4981321;28;20481;-56
2022/03/13 04:01:18;;;;;;;31.40;14.77;;;-2.80;64.20;;;-3.43;49.88;95935.81;4981103;28;20920;-53
2022/03/13 04:03:46;;;;;;;37.67;14.70;;;-2.90;64.10;;;-3.50;50.46;95936.78;4975574;28;20474;-58
2022/03/13 04:06:14;;;;;;;26.23;12.97;;;-3.00;64.20;;;-3.57;51.49;95937.78;4973859;28;21027;-58
2022/03/13 04:08:43;;;;;;;19.40;10.70;;;-3.00;64.90;;;-3.61;50.37;95944.69;4979625;28;20474;-56
2022/03/13 04:11:11;;;;;;;27.03;11.67;;;-3.10;64.00;;;-3.62;51.00;95943.84;4981738;28;20822;-58
2022/03/13 04:13:38;;;;;;;24.70;11.10;;;-3.10;63.90;;;-3.60;49.77;95930.97;4971778;28;20579;-57
2022/03/13 04:16:08;;;;;;;19.53;10.30;;;-3.10;63.90;;;-3.55;50.60;95923.19;4975491;28;20464;-54
2022/03/13 04:18:36;;;;;;;21.40;9.80;;;-3.00;64.00;;;-3.51;51.07;95928.22;4975686;28;20467;-57
2022/03/13 04:21:03;;;;;;;21.50;10.03;;;-3.00;64.30;;;-3.48;51.04;95919.63;4979669;28;20490;-58
2022/03/13 04:23:32;;;;;;;15.93;9.70;;;-3.00;64.10;;;-3.45;50.26;95917.00;4979979;28;20482;-55
2022/03/13 04:26:01;;;;;;;21.57;9.83;;;-3.00;64.20;;;-3.44;51.16;95918.66;4975504;28;20457;-56
2022/03/13 04:28:28;;;;;;;19.23;9.40;;;-2.90;64.20;;;-3.44;50.70;95916.09;4972256;28;20475;-58
2022/03/13 04:30:59;;;;;;;15.60;9.43;;;-2.90;64.10;;;-3.42;50.13;95919.50;4984564;28;20967;-59
2022/03/13 04:33:27;;;;;;;15.77;8.30;;;-2.90;64.10;;;-3.41;50.90;95918.59;4980628;28;20830;-55
2022/03/13 04:36:03;;;;;;;18.00;8.83;;;-2.90;64.10;;;-3.38;50.93;95921.13;4974547;28;20868;-55
2022/03/13 04:38:30;;;;;;;19.27;8.80;;;-2.90;64.10;;;-3.34;50.75;95927.91;4976958;28;20555;-57
2022/03/13 04:40:57;;;;;;;13.73;8.37;;;-2.80;64.20;;;-3.32;50.24;95921.00;4981586;28;20463;-58
2022/03/13 04:43:26;;;;;;;26.90;9.80;;;-2.80;64.10;;;-3.30;49.25;95926.13;4984312;28;20867;-56
2022/03/13 04:45:53;;;;;;;22.57;10.33;;;-2.80;63.80;;;-3.30;49.29;95920.97;4969944;28;21006;-54
2022/03/13 04:48:21;;;;;;;25.50;10.43;;;-2.80;63.80;;;-3.30;49.56;95924.41;4978168;28;20493;-56
2022/03/13 04:50:49;;;;;;;21.63;11.37;;;-2.80;64.00;;;-3.30;49.31;95929.56;4984360;28;20588;-58
2022/03/13 04:53:16;;;;;;;20.37;11.57;;;-2.80;64.00;;;-3.29;50.18;95920.09;4984449;28;20572;-58
2022/03/13 04:55:44;;;;;;;21.83;11.37;;;-2.80;63.60;;;-3.32;49.44;95922.75;4970937;28;20455;-58
2022/03/13 04:58:11;;;;;;;15.60;9.43;;;-2.80;63.40;;;-3.32;49.97;95925.31;4975117;28;20529;-58
2022/03/13 05:00:40;;;;;;;20.30;10.30;;;-2.80;64.00;;;-3.33;50.01;95926.19;4970633;28;20448;-58
2022/03/13 05:03:10;;;;;;;23.47;10.73;;;-2.80;64.20;;;-3.34;50.70;95915.06;4978728;28;20524;-55
2022/03/13 05:05:39;;;;;;;22.00;9.47;;;-2.80;64.10;;;-3.33;49.93;95913.31;4970817;28;20455;-56
2022/03/13 05:08:11;;;;;;;22.90;10.33;;;-2.80;64.00;;;-3.31;50.69;95909.00;4971665;28;20548;-54
2022/03/13 05:10:39;;;;;;;16.43;9.80;;;-2.80;64.10;;;-3.28;49.33;95927.78;4979090;28;20451;-57
2022/03/13 05:13:07;;;;;;;18.97;10.03;;;-2.80;63.60;;;-3.25;50.27;95932.03;4979287;28;20491;-57
2022/03/13 05:15:34;;;;;;;22.00;11.20;;;-2.70;63.80;;;-3.25;49.34;95926.91;4980686;28;20853;-57
2022/03/13 05:18:03;;;;;;;20.90;11.53;;;-2.70;64.00;;;-3.25;50.27;95930.31;4974068;28;20482;-59
2022/03/13 05:20:31;;;;;;;17.33;10.10;;;-2.70;64.00;;;-3.24;50.40;95926.00;4972087;28;20454;-58
2022/03/13 05:22:58;;;;;;;21.50;9.70;;;-2.70;64.10;;;-3.21;50.66;95931.09;4979993;28;21019;-59
2022/03/13 05:25:30;;;;;;;21.10;10.53;;;-2.70;64.20;;;-3.16;50.10;95931.00;4976389;28;20458;-58
2022/03/13 05:27:57;;;;;;;21.30;10.30;;;-2.70;64.30;;;-3.10;50.38;95930.88;4969478;28;20467;-57
2022/03/13 05:30:25;;;;;;;21.63;10.83;;;-2.60;64.40;;;-3.04;50.99;95924.75;4973540;28;20470;-56
2022/03/13 05:32:52;;;;;;;20.43;11.67;;;-2.50;64.50;;;-2.97;50.51;95931.47;4978052;28;20490;-58
2022/03/13 05:35:21;;;;;;;18.00;10.73;;;-2.50;64.50;;;-2.91;49.99;95937.34;4986395;28;20458;-53
2022/03/13 05:37:48;;;;;;;16.43;10.03;;;-2.40;64.50;;;-2.89;50.04;95930.41;4967069;28;21015;-58
2022/03/13 05:40:17;;;;;;;24.47;11.43;;;-2.30;64.50;;;-2.78;50.54;95937.91;4973921;28;20470;-56
2022/03/13 05:42:45;;;;;;;26.40;11.80;;;-2.30;64.50;;;-2.68;49.69;95941.16;4977679;28;20466;-56
2022/03/13 05:45:15;;;;;;;22.63;11.70;;;-2.20;64.70;;;-2.61;50.54;95937.56;4979036;28;20541;-59
2022/03/13 05:47:46;;;;;;;21.60;11.63;;;-2.10;64.90;;;-2.53;50.33;95943.38;4974725;28;21015;-53
2022/03/13 05:50:14;;;;;;;20.50;10.80;;;-2.10;64.90;;;-2.46;50.49;95946.69;4971936;28;20468;-54
2022/03/13 05:52:43;;;;;;;24.53;11.60;;;-2.00;64.60;;;-2.38;49.59;95941.34;4977707;28;20469;-59
2022/03/13 05:55:11;;;;;;;22.90;12.50;;;-1.90;64.30;;;-2.30;49.84;95939.44;4972817;28;20493;-56
2022/03/13 05:57:38;;;;;;;20.70;11.67;;;-1.80;64.30;;;-2.22;50.01;95942.66;4978274;28;20707;-57
2022/03/13 06:00:07;;;;;;;29.57;13.33;;;-1.70;64.10;;;-2.13;48.98;95945.94;4972302;28;20481;-58
2022/03/13 06:02:38;;;;;;;25.33;13.00;;;-1.70;63.70;;;-2.07;49.44;95951.78;4975090;28;20534;-54
2022/03/13 06:05:07;;;;;;;21.87;11.00;;;-1.60;63.40;;;-1.99;49.25;95949.00;4977072;28;20454;-58
2022/03/13 06:07:34;;;;;;;25.37;12.60;;;-1.60;63.20;;;-1.91;48.90;95952.25;4974294;28;21008;-59
2022/03/13 06:10:03;;;;;;;26.77;12.40;;;-1.50;63.00;;;-1.82;49.04;95951.19;4971457;28;20453;-59
2022/03/13 06:12:31;;;;;;;46.57;14.30;;;-1.40;63.00;;;-1.70;48.85;95960.34;4975188;28;20471;-56
2022/03/13 06:14:58;;;;;;;25.53;13.50;;;-1.30;63.20;;;-1.63;49.11;95954.13;4976484;28;20951;-56
2022/03/13 06:17:25;;;;;;;32.77;14.67;;;-1.20;63.10;;;-1.60;48.86;95956.63;4980757;28;20490;-59
2022/03/13 06:19:53;;;;;;;28.83;15.10;;;-1.10;62.70;;;-1.55;49.21;95959.09;4970741;28;20460;-58
2022/03/13 06:22:21;;;;;;;28.77;14.70;;;-1.10;62.60;;;-1.48;49.54;95961.47;4973124;28;20479;-57
2022/03/13 06:24:48;;;;;;;27.40;13.93;;;-1.10;62.80;;;-1.30;49.34;95957.56;4974365;28;20459;-58
2022/03/13 06:27:17;;;;;;;25.60;14.63;;;-0.90;63.20;;;-1.09;48.88;95950.97;4973764;28;21016;-58
2022/03/13 06:29:45;;;;;;;27.90;14.43;;;-0.70;63.00;;;-0.83;48.74;95954.56;4977446;28;20470;-55
2022/03/13 06:32:12;;;;;;;25.07;15.20;;;-0.50;63.20;;;-0.57;48.76;95950.38;4974980;28;20454;-55
2022/03/13 06:34:39;;;;;;;27.70;15.03;;;-0.30;62.90;;;-0.28;48.27;95952.06;4978268;28;20841;-55
2022/03/13 06:37:08;;;;;;;28.30;15.50;;;0.00;62.40;;;0.04;47.62;95959.72;4982858;28;20973;-59
2022/03/13 06:39:35;;;;;;;26.30;14.30;;;0.30;61.30;;;0.33;47.11;95963.94;4985951;28;20504;-56
2022/03/13 06:42:03;;;;;;;27.40;15.07;;;0.60;60.30;;;0.64;46.22;95963.75;4980096;28;20466;-56
2022/03/13 06:44:32;;;;;;;25.83;15.53;;;0.90;59.70;;;0.97;46.09;95960.03;4982949;28;20460;-58
2022/03/13 06:47:00;;;;;;;34.00;15.47;;;1.20;58.80;;;1.29;46.19;95958.88;4984010;28;20799;-58
2022/03/13 06:49:27;;;;;;;31.83;16.00;;;1.50;58.00;;;1.61;45.27;95957.66;4985093;28;20576;-56
2022/03/13 06:51:55;;;;;;;32.57;16.60;;;1.80;56.70;;;1.94;44.89;95953.81;4977245;28;20550;-57
2022/03/13 06:54:22;;;;;;;31.93;15.23;;;2.10;56.40;;;2.27;44.07;95961.16;4974067;28;20493;-56
2022/03/13 06:56:50;;;;;;;36.67;17.67;;;2.40;55.70;;;2.61;43.81;95950.22;4981267;28;20457;-57
2022/03/13 06:59:17;;;;;;;35.37;17.20;;;2.80;54.70;;;2.93;42.91;95950.59;4977782;28;20986;-59
2022/03/13 07:01:46;;;;;;;28.73;15.60;;;3.10;53.90;;;3.22;42.49;95936.31;4976322;28;20462;-56
2022/03/13 07:04:14;;;;;;;31.40;16.20;;;3.30;53.80;;;3.59;42.17;95939.84;4978185;28;20463;-60
2022/03/13 07:06:42;;;;;;;27.57;15.63;;;3.70;54.20;;;3.99;41.35;95936.28;4978596;28;20541;-56
2022/03/13 07:09:09;;;;;;;33.27;16.77;;;4.10;52.30;;;4.29;40.34;95942.63;4980438;28;20475;-59
2022/03/13 07:11:37;;;;;;;30.90;16.60;;;4.40;50.40;;;4.53;39.79;95937.09;4975742;28;20648;-58
2022/03/13 07:14:05;;;;;;;33.83;18.13;;;4.60;49.50;;;4.79;40.00;95927.97;4972885;28;20502;-57
2022/03/13 07:16:32;;;;;;;34.33;17.60;;;4.80;49.60;;;5.13;39.40;95925.41;4976818;28;20510;-59
2022/03/13 07:19:01;;;;;;;35.20;18.40;;;5.10;49.50;;;5.56;39.30;95930.91;4983889;28;20871;-56
2022/03/13 07:21:28;;;;;;;43.43;19.00;;;5.50;49.20;;;5.96;38.50;95933.13;4972208;28;20474;-55
2022/03/13 07:23:55;;;;;;;38.13;17.03;;;5.90;48.70;;;6.40;38.99;95929.81;4974758;28;20904;-56
2022/03/13 07:26:23;;;;;;;32.47;17.37;;;6.30;49.30;;;6.89;38.37;95934.78;4976673;28;20448;-56
2022/03/13 07:28:50;;;;;;;31.70;18.37;;;6.80;47.80;;;7.38;37.48;95930.97;4977999;28;21102;-55
2022/03/13 07:31:18;;;;;;;35.53;16.50;;;7.30;47.30;;;7.88;36.96;95932.25;4977034;28;20531;-56
2022/03/13 07:33:45;;;;;;;44.50;18.90;;;7.80;46.30;;;8.36;37.08;95931.78;4973216;28;20508;-59
2022/03/13 07:36:14;;;;;;;34.60;19.97;;;8.20;45.90;;;8.80;36.97;95929.84;4975167;28;20946;-60
2022/03/13 07:38:41;;;;;;;32.17;17.47;;;8.70;45.40;;;9.25;35.13;95929.44;4981803;28;20550;-57
2022/03/13 07:41:09;;;;;;;27.53;16.87;;;9.20;44.80;;;9.63;35.33;95926.78;4967349;28;20491;-56
2022/03/13 07:43:36;;;;;;;37.33;17.50;;;9.60;43.60;;;9.99;34.89;95925.13;4974961;28;20500;-57
2022/03/13 07:46:03;;;;;;;38.57;17.30;;;10.10;41.70;;;10.37;34.89;95929.41;4972456;28;20996;-59
2022/03/13 07:48:34;;;;;;;30.97;16.87;;;10.50;41.30;;;10.75;33.74;95932.78;4977986;28;21038;-56
2022/03/13 07:51:01;;;;;;;33.60;17.17;;;10.90;40.40;;;11.06;32.65;95926.06;4978158;28;20517;-58
2022/03/13 07:53:30;;;;;;;28.93;16.63;;;11.30;39.10;;;11.44;32.67;95919.63;4966202;28;20902;-57
2022/03/13 07:55:57;;;;;;;33.37;17.17;;;11.70;39.10;;;11.79;33.34;95912.56;4973293;28;20471;-59
2022/03/13 07:58:25;;;;;;;35.90;15.90;;;12.10;39.50;;;12.13;32.62;95916.03;4982348;28;20483;-56
2022/03/13 08:00:52;;;;;;;31.30;17.73;;;12.50;38.90;;;12.47;31.73;95908.00;4984220;28;20557;-60
2022/03/13 08:03:28;;;;;;;26.17;18.90;;;12.80;37.50;;;12.68;30.04;95915.13;4969596;28;21040;-57
2022/03/13 08:05:55;;;;;;;26.83;17.70;;;13.10;36.00;;;12.78;30.56;95904.63;4973686;28;20454;-57
2022/03/13 08:08:22;;;;;;;31.40;18.30;;;13.20;35.80;;;12.84;29.25;95899.69;4971517;28;20482;-57
2022/03/13 08:10:51;;;;;;;30.17;16.90;;;13.30;34.70;;;12.87;29.69;95888.88;4977325;28;20451;-56
2022/03/13 08:13:18;;;;;;;39.80;18.87;;;13.30;34.90;;;12.94;29.91;95894.47;4975837;28;20479;-57
2022/03/13 08:15:46;;;;;;;28.90;18.13;;;13.30;35.30;;;13.08;30.64;95891.47;4970766;28;20491;-59
2022/03/13 08:18:13;;;;;;;47.10;19.60;;;13.40;35.30;;;13.06;29.29;95889.97;4972506;28;20509;-57
2022/03/13 08:20:40;;;;;;;36.77;18.87;;;13.40;34.60;;;12.91;29.93;95890.25;4978796;28;20450;-61
2022/03/13 08:23:07;;;;;;;29.07;18.50;;;13.30;34.80;;;12.91;29.88;95884.97;4985061;28;20475;-61
2022/03/13 08:25:36;;;;;;;28.17;16.70;;;13.30;34.90;;;13.06;30.31;95893.44;4974738;28;21007;-61
2022/03/13 08:28:05;;;;;;;32.63;18.10;;;13.30;35.70;;;13.26;29.71;95888.22;4979296;28;20471;-60
2022/03/13 08:30:33;;;;;;;34.83;18.23;;;13.50;34.20;;;13.44;28.69;95891.97;4979770;28;20842;-60
2022/03/13 08:33:00;;;;;;;30.47;18.47;;;13.70;33.80;;;13.49;28.39;95882.81;4985381;28;20481;-60
2022/03/13 08:35:28;;;;;;;36.07;18.57;;;13.70;33.00;;;13.53;28.05;95878.94;4977706;28;20872;-60
2022/03/13 08:37:55;;;;;;;30.87;17.27;;;13.80;33.30;;;13.69;27.97;95878.44;4977185;28;20475;-60
2022/03/13 08:40:25;;;;;;;29.47;17.67;;;13.80;32.80;;;13.82;27.13;95884.34;4978749;28;20484;-61
2022/03/13 08:42:52;;;;;;;31.27;17.57;;;13.90;32.40;;;13.93;27.29;95892.16;4986034;28;20545;-58
2022/03/13 08:45:21;;;;;;;29.90;17.40;;;14.00;32.40;;;14.06;28.06;95880.50;4975897;28;20466;-56
2022/03/13 08:47:48;;;;;;;28.00;17.17;;;14.10;33.10;;;14.15;27.18;95866.44;4976789;28;20537;-60
2022/03/13 08:50:16;;;;;;;29.67;16.60;;;14.10;31.80;;;14.19;27.77;95875.78;4981923;28;20460;-61
2022/03/13 08:52:44;;;;;;;32.17;16.37;;;14.20;32.90;;;14.24;26.24;95862.97;4984024;28;20483;-57
2022/03/13 08:55:13;;;;;;;27.97;16.57;;;14.20;31.30;;;14.24;26.40;95857.69;4980861;28;20523;-60
2022/03/13 08:57:42;;;;;;;33.77;16.87;;;14.20;30.50;;;14.21;26.51;95862.44;4975230;28;20475;-57
2022/03/13 09:00:11;;;;;;;29.27;16.07;;;14.10;31.00;;;14.31;25.85;95861.47;4973834;28;20992;-58
2022/03/13 09:02:40;;;;;;;26.43;15.33;;;14.20;31.30;;;14.38;26.04;95860.91;4976520;28;20553;-60
2022/03/13 09:05:08;;;;;;;29.30;14.80;;;14.30;31.70;;;14.40;26.18;95864.25;4972777;28;20876;-57
2022/03/13 09:07:35;;;;;;;27.67;15.03;;;14.30;30.60;;;14.34;26.76;95858.53;4973178;28;20466;-56
2022/03/13 09:10:03;;;;;;;26.40;15.70;;;14.20;31.40;;;14.24;26.30;95852.38;4975501;28;20455;-56
2022/03/13 09:12:31;;;;;;;27.23;13.87;;;14.20;30.50;;;14.12;26.69;95858.78;4975281;28;20815;-60
2022/03/13 09:14:59;;;;;;;32.47;14.73;;;14.10;31.10;;;13.92;27.29;95848.16;4975947;28;20845;-60
2022/03/13 09:17:27;;;;;;;18.43;11.30;;;14.00;31.50;;;13.58;28.09;95839.72;4967291;28;20475;-57
2022/03/13 09:19:56;;;;;;;16.50;11.70;;;13.70;32.90;;;13.12;29.06;95851.59;4971661;28;20446;-56
2022/03/13 09:22:28;;;;;;;18.80;10.67;;;13.30;34.60;;;12.50;30.06;95844.44;4974066;28;20534;-57
2022/03/13 09:24:57;;;;;;;11.53;8.87;;;12.70;36.10;;;12.10;29.90;95842.44;4975556;28;20436;-56
2022/03/13 09:27:24;;;;;;;18.33;9.93;;;12.30;35.20;;;12.06;30.07;95841.00;4973552;28;20599;-57
2022/03/13 09:29:52;;;;;;;16.63;10.77;;;12.10;34.90;;;12.22;30.00;95845.00;4974002;28;20563;-57
2022/03/13 09:32:19;;;;;;;12.40;9.10;;;12.20;35.50;;;12.51;30.14;95838.16;4974250;28;20575;-56
2022/03/13 09:34:46;;;;;;;18.20;9.77;;;12.40;36.70;;;12.84;29.14;95838.97;4974227;28;20486;-57
2022/03/13 09:37:15;;;;;;;26.20;11.23;;;12.60;34.90;;;13.15;29.44;95838.13;4975201;28;20452;-57
2022/03/13 09:39:42;;;;;;;17.40;9.77;;;12.90;35.00;;;13.30;29.12;95830.69;4975027;28;20562;-57
2022/03/13 09:42:09;;;;;;;18.80;11.27;;;13.10;35.00;;;13.09;25.84;95823.66;4977418;28;20497;-57
2022/03/13 09:44:37;;;;;;;15.80;9.47;;;13.00;31.30;;;12.71;28.83;95822.47;4976738;28;20743;-56
2022/03/13 09:47:05;;;;;;;15.37;10.50;;;12.80;34.20;;;12.52;29.61;95815.28;4972770;28;20452;-56
2022/03/13 09:49:32;;;;;;;16.93;9.63;;;12.60;35.60;;;12.38;26.85;95813.78;4975989;28;20531;-57
2022/03/13 09:52:00;;;;;;;25.77;10.33;;;12.40;31.60;;;12.10;29.61;95809.94;4977815;28;20960;-55
2022/03/13 09:54:28;;;;;;;21.10;10.30;;;12.20;34.50;;;11.95;29.54;95817.31;4979601;28;20509;-58
2022/03/13 09:56:56;;;;;;;12.20;9.47;;;12.00;35.10;;;11.82;28.87;95818.28;4986611;28;20469;-55
2022/03/13 09:59:23;;;;;;;16.90;9.00;;;11.80;33.50;;;11.79;29.50;95805.34;4972712;28;20459;-56
2022/03/13 10:01:50;;;;;;;13.20;8.90;;;11.80;35.00;;;11.81;29.21;95803.41;4978025;28;20455;-56
2022/03/13 10:04:18;;;;;;;12.73;8.00;;;11.80;34.60;;;11.74;29.84;95814.56;4977351;28;20474;-57
2022/03/13 10:07:08;;;;;;;14.23;8.23;;;11.70;35.40;;;11.51;30.06;95804.09;4976424;28;20471;-58
2022/03/13 10:09:38;;;;;;;18.50;8.97;;;11.50;35.40;;;11.30;28.61;95804.00;4972297;28;20886;-56
2022/03/13 10:12:11;;;;;;;12.90;7.37;;;11.30;34.00;;;10.99;29.72;95798.50;4978249;28;20518;-57